Time;durP1;ratioP1;P1;durP2;ratioP2;P2;SDS_P1;SDS_P2;PMS_P1;PMS_P2;Temp;Humidity;BMP_temperature;BMP_pressure;BME280_temperature;BME280_humidity;BME280_pressure;Samples;Min_cycle;Max_cycle;Signal;HPM_P1;HPM_P2
2022/10/17 00:01:27;;;;;;;14.95;12.80;;;;;;;9.54;58.77;96208.94;5079744;28;20274;-66
2022/10/17 00:03:53;;;;;;;13.23;11.82;;;;;;;9.55;58.48;96206.22;5085370;28;20240;-65
2022/10/17 00:06:44;;;;;;;15.23;12.57;;;;;;;9.33;59.62;96201.75;5085294;28;20220;-66
2022/10/17 00:09:09;;;;;;;16.60;10.77;;;;;;;9.36;59.45;96203.31;5079878;28;20299;-67
2022/10/17 00:11:35;;;;;;;12.02;10.80;;;;;;;9.43;59.09;96207.13;5083023;28;20235;-66
2022/10/17 00:14:01;;;;;;;12.33;11.13;;;;;;;9.59;58.48;96212.06;5085249;28;20214;-64
2022/10/17 00:16:29;;;;;;;14.27;11.77;;;;;;;9.31;59.95;96205.44;5087963;28;20191;-64
2022/10/17 00:18:56;;;;;;;12.82;11.07;;;;;;;9.42;59.59;96211.56;5099382;28;20187;-64
2022/10/17 00:21:22;;;;;;;14.10;11.05;;;;;;;9.53;58.78;96213.38;5082496;28;20189;-64
2022/10/17 00:23:48;;;;;;;12.05;10.32;;;;;;;9.33;59.39;96217.50;5088630;28;20192;-64
2022/10/17 00:26:15;;;;;;;14.73;11.40;;;;;;;9.14;60.11;96218.03;5082573;28;20208;-64
2022/10/17 00:28:41;;;;;;;14.88;11.07;;;;;;;9.14;59.91;96206.69;5088544;28;20192;-64
2022/10/17 00:31:06;;;;;;;11.88;10.10;;;;;;;9.30;59.65;96216.88;5088088;28;20188;-64
2022/10/17 00:33:34;;;;;;;12.25;10.95;;;;;;;9.25;59.88;96204.94;5083761;28;20215;-64
2022/10/17 00:36:15;;;;;;;12.30;11.00;;;;;;;9.12;59.88;96201.56;5083225;28;20192;-64
2022/10/17 00:38:43;;;;;;;12.00;10.80;;;;;;;8.91;60.87;96205.78;5076826;28;20205;-65
2022/10/17 00:41:11;;;;;;;13.15;10.50;;;;;;;9.04;60.31;96217.03;5082914;28;20212;-64
2022/10/17 00:43:59;;;;;;;13.50;11.10;;;;;;;8.93;60.41;96220.44;5087502;28;20267;-64
2022/10/17 00:46:37;;;;;;;12.38;11.07;;;;;;;8.82;61.08;96223.84;5081061;28;20280;-65
2022/10/17 00:49:11;;;;;;;14.50;10.90;;;;;;;8.71;61.77;96217.69;5081989;28;20194;-66
2022/10/17 00:51:44;;;;;;;12.20;10.60;;;;;;;8.86;60.89;96226.25;5083431;28;20185;-66
2022/10/17 00:54:12;;;;;;;13.60;10.77;;;;;;;8.77;60.98;96225.13;5086739;28;20207;-66
2022/10/17 00:56:39;;;;;;;11.37;9.87;;;;;;;8.80;60.85;96215.25;5077462;28;20192;-66
2022/10/17 00:59:09;;;;;;;13.00;10.27;;;;;;;8.80;60.67;96215.25;5084427;28;20234;-66
2022/10/17 01:01:35;;;;;;;12.32;11.07;;;;;;;8.88;60.28;96219.94;5102175;28;20215;-66
2022/10/17 01:04:01;;;;;;;12.87;10.57;;;;;;;8.79;60.83;96224.09;5087250;28;20180;-65
2022/10/17 01:06:26;;;;;;;11.03;9.80;;;;;;;8.73;60.82;96226.28;5088925;28;20200;-65
2022/10/17 01:08:52;;;;;;;9.87;8.07;;;;;;;8.91;59.74;96216.25;5080542;28;20261;-65
2022/10/17 01:11:51;;;;;;;9.82;8.88;;;;;;;8.99;59.65;96227.84;5080320;28;20307;-65
2022/10/17 01:14:30;;;;;;;9.87;8.73;;;;;;;8.63;60.77;96213.00;5077281;28;20185;-65
2022/10/17 01:17:29;;;;;;;9.82;8.82;;;;;;;8.68;60.26;96213.50;5081711;28;20263;-64
2022/10/17 01:20:17;;;;;;;9.40;8.50;;;;;;;8.54;60.79;96224.16;5024468;28;20198;-65
2022/10/17 01:22:52;;;;;;;11.13;9.43;;;;;;;8.59;61.10;96214.19;5007094;28;20194;-65
2022/10/17 01:25:29;;;;;;;9.47;7.90;;;;;;;8.54;61.23;96208.44;5040178;28;20283;-65
2022/10/17 01:28:26;;;;;;;9.93;8.27;;;;;;;8.46;61.30;96221.25;5026086;28;20297;-65
2022/10/17 01:31:07;;;;;;;7.53;6.83;;;;;;;8.52;60.78;96218.19;5024276;28;20249;-65
2022/10/17 01:33:40;;;;;;;7.03;6.40;;;;;;;8.50;60.70;96220.94;5007467;28;20190;-63
2022/10/17 01:36:16;;;;;;;7.63;6.83;;;;;;;8.52;60.26;96212.94;5009204;28;20281;-63
2022/10/17 01:38:46;;;;;;;8.77;6.35;;;;;;;8.55;60.05;96220.56;5024579;28;20218;-63
2022/10/17 01:41:26;;;;;;;9.13;6.70;;;;;;;8.59;59.90;96227.28;5009459;28;20182;-63
2022/10/17 01:43:54;;;;;;;9.43;6.05;;;;;;;8.52;59.91;96223.44;5010639;28;20296;-63
2022/10/17 01:46:36;;;;;;;6.27;5.67;;;;;;;8.40;60.05;96217.28;5022045;28;20219;-63
2022/10/17 01:49:03;;;;;;;7.18;6.32;;;;;;;8.35;60.49;96220.19;5009519;28;20182;-64
2022/10/17 01:51:51;;;;;;;6.80;6.20;;;;;;;8.44;60.48;96226.59;5010762;28;20217;-64
2022/10/17 01:54:29;;;;;;;9.17;6.30;;;;;;;8.45;60.40;96216.97;5011255;28;21018;-63
2022/10/17 01:56:59;;;;;;;6.72;6.00;;;;;;;8.45;59.99;96219.59;5058123;28;20219;-64
2022/10/17 01:59:28;;;;;;;6.72;5.82;;;;;;;8.61;59.63;96228.03;5082737;28;20248;-63
2022/10/17 02:01:57;;;;;;;6.90;6.20;;;;;;;8.57;59.76;96237.03;5080518;28;20177;-63
2022/10/17 02:04:24;;;;;;;9.60;6.30;;;;;;;8.38;60.33;96230.44;5086201;28;20269;-63
2022/10/17 02:06:50;;;;;;;8.23;6.18;;;;;;;8.22;60.49;96232.47;5085214;28;20231;-63
2022/10/17 02:09:18;;;;;;;11.03;6.33;;;;;;;8.24;60.55;96229.75;5086544;28;20188;-63
2022/10/17 02:11:54;;;;;;;8.75;6.20;;;;;;;8.28;60.95;96244.31;5080305;28;20189;-63
2022/10/17 02:14:30;;;;;;;10.07;6.10;;;;;;;8.22;61.13;96239.50;5076773;28;20187;-64
2022/10/17 02:16:59;;;;;;;6.65;5.95;;;;;;;8.16;61.45;96257.31;5083832;28;20257;-63
2022/10/17 02:20:03;;;;;;;5.77;5.27;;;;;;;8.12;60.99;96234.88;5083112;28;20188;-63
2022/10/17 02:22:40;;;;;;;6.07;5.10;;;;;;;8.09;60.63;96234.28;5007068;28;20209;-64
2022/10/17 02:25:34;;;;;;;5.80;5.20;;;;;;;8.13;60.42;96241.81;5009836;28;20306;-64
2022/10/17 02:28:04;;;;;;;5.60;5.10;;;;;;;8.12;60.58;96242.75;5013742;28;20217;-64
2022/10/17 02:31:06;;;;;;;7.03;5.47;;;;;;;8.17;60.58;96253.75;5015526;28;20190;-64
2022/10/17 02:33:37;;;;;;;7.13;5.77;;;;;;;8.14;60.69;96258.38;4928748;29;20319;-64
2022/10/17 02:36:07;;;;;;;7.33;4.87;;;;;;;7.91;60.85;96241.63;4933485;29;20212;-64
2022/10/17 02:38:34;;;;;;;6.03;5.37;;;;;;;7.99;60.80;96248.94;4950240;29;20229;-64
2022/10/17 02:41:00;;;;;;;5.90;5.30;;;;;;;8.02;61.03;96254.84;4953634;28;20232;-64
2022/10/17 02:43:26;;;;;;;6.07;5.47;;;;;;;7.91;61.35;96247.72;4932663;29;20294;-64
2022/10/17 02:45:53;;;;;;;6.13;5.40;;;;;;;7.92;61.05;96251.16;4941933;28;20231;-64
2022/10/17 02:48:33;;;;;;;6.90;5.87;;;;;;;7.96;61.50;96270.94;4952999;28;20193;-64
2022/10/17 02:51:09;;;;;;;5.70;5.10;;;;;;;8.00;61.14;96276.84;4935145;29;20211;-64
2022/10/17 02:53:47;;;;;;;6.65;5.93;;;;;;;8.14;60.62;96269.69;4930409;29;20204;-64
2022/10/17 02:56:23;;;;;;;7.22;5.78;;;;;;;8.01;61.11;96275.88;4933200;29;20268;-64
2022/10/17 02:58:56;;;;;;;6.17;5.60;;;;;;;8.08;60.90;96274.53;4964716;28;20236;-64
2022/10/17 03:01:23;;;;;;;6.57;5.97;;;;;;;8.08;60.92;96272.75;5008231;28;20194;-64
2022/10/17 03:03:48;;;;;;;7.03;6.10;;;;;;;8.14;60.26;96274.94;4994458;28;20632;-64
2022/10/17 03:06:14;;;;;;;9.93;6.20;;;;;;;7.99;60.66;96280.38;4994444;28;20214;-64
2022/10/17 03:08:39;;;;;;;9.27;6.63;;;;;;;7.80;61.35;96280.78;4996421;28;20187;-64
2022/10/17 03:11:05;;;;;;;8.85;7.15;;;;;;;7.89;60.94;96291.50;5083363;28;20281;-64
2022/10/17 03:13:31;;;;;;;8.00;7.00;;;;;;;7.92;61.00;96291.28;5086299;28;20185;-63
2022/10/17 03:15:56;;;;;;;7.77;6.83;;;;;;;7.85;61.18;96295.25;5083156;28;20184;-64
2022/10/17 03:18:22;;;;;;;11.07;7.47;;;;;;;7.96;61.17;96294.53;5083219;28;20195;-64
2022/10/17 03:20:48;;;;;;;7.63;6.90;;;;;;;7.81;61.98;96292.97;5089753;28;20176;-64
2022/10/17 03:23:13;;;;;;;7.87;6.77;;;;;;;7.73;61.97;96280.38;5084015;28;20199;-64
2022/10/17 03:25:39;;;;;;;8.07;6.95;;;;;;;7.76;61.96;96285.41;5089557;28;20215;-64
2022/10/17 03:28:04;;;;;;;8.97;6.60;;;;;;;7.76;62.00;96288.03;5083365;28;20188;-64
2022/10/17 03:30:30;;;;;;;8.55;7.75;;;;;;;7.83;61.70;96291.06;5083812;28;20176;-64
2022/10/17 03:32:59;;;;;;;9.10;7.47;;;;;;;7.73;61.91;96286.47;5086894;28;20180;-64
2022/10/17 03:35:25;;;;;;;8.77;6.30;;;;;;;7.53;62.97;96294.78;5088781;28;20187;-63
2022/10/17 03:37:51;;;;;;;8.80;7.10;;;;;;;7.47;62.53;96285.56;5086369;28;20298;-63
2022/10/17 03:40:17;;;;;;;12.23;7.33;;;;;;;7.58;62.38;96291.88;5081932;28;20271;-63
2022/10/17 03:42:42;;;;;;;9.60;6.82;;;;;;;7.76;61.86;96297.66;5084305;28;20632;-63
2022/10/17 03:45:08;;;;;;;9.45;6.82;;;;;;;7.68;62.34;96285.09;5088733;28;20189;-63
2022/10/17 03:47:34;;;;;;;9.03;7.27;;;;;;;7.58;62.14;96290.09;5067128;28;20213;-63
2022/10/17 03:49:59;;;;;;;8.17;7.20;;;;;;;7.61;62.13;96294.28;5087584;28;20245;-63
2022/10/17 03:52:25;;;;;;;9.27;7.07;;;;;;;7.57;62.46;96295.44;5087315;28;20188;-63
2022/10/17 03:54:50;;;;;;;10.93;8.03;;;;;;;7.54;62.71;96314.81;5080240;28;20180;-63
2022/10/17 03:57:17;;;;;;;9.17;7.47;;;;;;;7.34;63.12;96305.63;5088510;28;20192;-64
2022/10/17 03:59:42;;;;;;;11.57;8.20;;;;;;;7.39;62.86;96303.56;5085224;28;20221;-65
2022/10/17 04:02:08;;;;;;;12.83;8.30;;;;;;;7.22;64.05;96302.06;5100551;28;20189;-64
2022/10/17 04:04:33;;;;;;;10.10;9.10;;;;;;;7.31;63.84;96300.59;5085178;28;20230;-64
2022/10/17 04:06:59;;;;;;;11.53;9.27;;;;;;;7.07;64.78;96300.41;5082106;28;20215;-64
2022/10/17 04:09:24;;;;;;;11.10;9.10;;;;;;;7.21;64.24;96312.59;5085338;28;20196;-64
2022/10/17 04:11:50;;;;;;;10.30;9.30;;;;;;;7.18;64.29;96302.34;5084782;28;20256;-63
2022/10/17 04:14:15;;;;;;;12.43;8.60;;;;;;;7.28;64.27;96308.66;5084781;28;20227;-64
2022/10/17 04:16:41;;;;;;;15.13;9.63;;;;;;;7.33;63.74;96311.81;5084162;28;20176;-64
2022/10/17 04:19:06;;;;;;;12.13;8.93;;;;;;;7.31;63.18;96308.47;5083660;28;20492;-64
2022/10/17 04:21:31;;;;;;;14.73;8.97;;;;;;;7.41;63.57;96316.56;5084942;28;20181;-64
2022/10/17 04:23:59;;;;;;;16.20;9.57;;;;;;;7.27;63.71;96320.91;5087271;28;20192;-64
2022/10/17 04:26:26;;;;;;;13.20;9.60;;;;;;;7.32;63.30;96312.75;5084835;28;20230;-64
2022/10/17 04:28:51;;;;;;;13.37;9.33;;;;;;;7.34;63.22;96310.88;5083564;28;20195;-65
2022/10/17 04:31:17;;;;;;;13.07;8.90;;;;;;;7.31;63.43;96318.91;5085302;28;20192;-64
2022/10/17 04:33:45;;;;;;;12.90;9.37;;;;;;;7.16;64.01;96312.06;5079850;28;20202;-64
2022/10/17 04:36:13;;;;;;;14.00;10.00;;;;;;;7.38;63.29;96320.22;5083410;28;20172;-64
2022/10/17 04:38:39;;;;;;;12.93;9.50;;;;;;;7.29;63.30;96320.78;5081601;28;20192;-64
2022/10/17 04:41:07;;;;;;;12.37;9.60;;;;;;;7.16;63.86;96319.91;5083388;28;20180;-64
2022/10/17 04:43:34;;;;;;;12.57;8.77;;;;;;;7.07;64.42;96326.56;5086968;28;20176;-63
2022/10/17 04:46:02;;;;;;;9.87;8.87;;;;;;;7.16;63.91;96317.28;5083283;28;20200;-64
2022/10/17 04:48:29;;;;;;;11.93;10.37;;;;;;;7.12;63.85;96319.28;5080523;28;20232;-63
2022/10/17 04:50:55;;;;;;;11.60;9.70;;;;;;;6.95;64.30;96317.75;5083976;28;20180;-63
2022/10/17 04:53:22;;;;;;;11.17;9.63;;;;;;;6.89;64.29;96320.72;5085385;28;20196;-63
2022/10/17 04:55:47;;;;;;;16.53;10.33;;;;;;;7.11;64.39;96335.06;5080628;28;20189;-64
2022/10/17 04:58:13;;;;;;;17.42;9.60;;;;;;;7.17;63.36;96330.28;5080623;28;20208;-63
2022/10/17 05:00:38;;;;;;;13.20;9.33;;;;;;;6.91;64.59;96324.09;5084231;28;20265;-64
2022/10/17 05:03:04;;;;;;;14.07;9.93;;;;;;;6.91;64.64;96334.56;5084321;28;20257;-64
2022/10/17 05:05:30;;;;;;;15.97;9.90;;;;;;;7.02;64.26;96326.84;5083296;28;20211;-64
2022/10/17 05:07:56;;;;;;;14.20;9.90;;;;;;;7.17;63.92;96338.13;5077197;28;20192;-63
2022/10/17 05:10:21;;;;;;;20.33;10.37;;;;;;;7.20;63.51;96339.72;5081930;28;20366;-64
2022/10/17 05:12:47;;;;;;;18.53;10.20;;;;;;;7.23;63.56;96344.75;5074901;28;20180;-65
2022/10/17 05:15:13;;;;;;;23.43;11.17;;;;;;;7.20;64.06;96350.19;5082868;28;20195;-64
2022/10/17 05:17:38;;;;;;;19.70;9.97;;;;;;;7.33;63.06;96358.91;5080340;28;20176;-64
2022/10/17 05:20:05;;;;;;;17.07;10.83;;;;;;;7.28;63.04;96347.91;5084159;28;20176;-64
2022/10/17 05:22:30;;;;;;;23.27;11.80;;;;;;;7.36;62.93;96350.03;5083147;28;20180;-64
2022/10/17 05:24:56;;;;;;;18.77;11.80;;;;;;;7.50;62.28;96363.03;5075894;28;20191;-64
2022/10/17 05:27:21;;;;;;;21.37;12.63;;;;;;;7.49;62.11;96361.38;5091904;28;20200;-65
2022/10/17 05:29:46;;;;;;;20.27;11.57;;;;;;;7.64;61.71;96367.38;5072068;28;20267;-63
2022/10/17 05:32:13;;;;;;;15.40;9.83;;;;;;;7.57;61.57;96361.72;5082103;28;20240;-64
2022/10/17 05:34:38;;;;;;;10.93;8.97;;;;;;;7.56;61.52;96356.56;5082153;28;20176;-65
2022/10/17 05:37:04;;;;;;;13.37;8.53;;;;;;;7.72;61.02;96378.19;5077821;28;20183;-64
2022/10/17 05:39:29;;;;;;;13.27;8.30;;;;;;;7.69;61.46;96375.78;5082043;28;20291;-63
2022/10/17 05:41:55;;;;;;;11.37;8.17;;;;;;;7.76;61.06;96368.38;5079335;28;20184;-64
2022/10/17 05:44:20;;;;;;;9.67;8.27;;;;;;;7.86;60.72;96369.44;5083025;28;20211;-64
2022/10/17 05:46:48;;;;;;;14.93;8.40;;;;;;;7.89;60.58;96371.84;5086482;28;20223;-64
2022/10/17 05:49:14;;;;;;;9.87;8.13;;;;;;;7.80;60.63;96365.41;5084524;28;20184;-64
2022/10/17 05:51:40;;;;;;;10.43;8.27;;;;;;;7.80;60.64;96365.41;5081912;28;20319;-63
2022/10/17 05:54:06;;;;;;;12.90;7.97;;;;;;;7.77;61.08;96373.47;5081979;28;20266;-63
2022/10/17 05:56:31;;;;;;;8.83;7.93;;;;;;;7.90;60.52;96374.34;5082080;28;20176;-63
2022/10/17 05:58:57;;;;;;;9.60;7.43;;;;;;;8.04;60.25;96383.91;5084909;28;20188;-63
2022/10/17 06:01:23;;;;;;;10.83;8.03;;;;;;;8.22;60.26;96392.31;5085295;28;20184;-64
2022/10/17 06:03:49;;;;;;;12.77;7.87;;;;;;;8.19;60.42;96397.78;5084747;28;20267;-64
2022/10/17 06:06:16;;;;;;;10.33;8.37;;;;;;;8.09;60.68;96401.94;5089256;28;20290;-63
2022/10/17 06:08:42;;;;;;;12.45;8.73;;;;;;;8.18;60.68;96396.09;5085869;28;20221;-64
2022/10/17 06:11:08;;;;;;;15.63;9.52;;;;;;;8.22;60.53;96392.31;5084080;28;20228;-63
2022/10/17 06:13:33;;;;;;;13.35;9.20;;;;;;;8.38;60.52;96398.19;5090700;28;20180;-64
2022/10/17 06:15:59;;;;;;;14.20;9.57;;;;;;;8.45;60.54;96392.59;5091266;28;20228;-63
2022/10/17 06:18:25;;;;;;;12.27;10.02;;;;;;;8.29;61.45;96398.84;5084262;28;20199;-64
2022/10/17 06:20:51;;;;;;;14.57;9.77;;;;;;;8.39;60.93;96394.69;5088383;28;20237;-63
2022/10/17 06:23:17;;;;;;;14.75;11.45;;;;;;;8.37;61.72;96411.41;5086961;28;20228;-63
2022/10/17 06:25:43;;;;;;;18.30;11.80;;;;;;;8.41;61.48;96407.66;5086547;28;20212;-63
2022/10/17 06:28:09;;;;;;;17.38;12.80;;;;;;;8.53;61.15;96417.31;5088785;28;20187;-66
2022/10/17 06:30:37;;;;;;;13.17;11.17;;;;;;;8.78;59.89;96426.13;5083889;28;20184;-63
2022/10/17 06:33:04;;;;;;;15.05;10.55;;;;;;;8.82;59.75;96417.94;5083864;28;20180;-63
2022/10/17 06:35:30;;;;;;;13.13;9.70;;;;;;;8.98;58.95;96422.09;5085981;28;20215;-63
2022/10/17 06:37:55;;;;;;;11.27;9.73;;;;;;;9.06;58.94;96438.13;5088757;28;20285;-64
2022/10/17 06:40:21;;;;;;;12.13;9.33;;;;;;;9.10;58.75;96426.50;5090310;28;20180;-64
2022/10/17 06:42:46;;;;;;;18.97;11.03;;;;;;;8.89;59.42;96431.47;5084064;28;20195;-63
2022/10/17 06:45:12;;;;;;;16.00;9.60;;;;;;;9.07;58.91;96436.38;5084178;28;20195;-64
2022/10/17 06:47:38;;;;;;;9.77;8.43;;;;;;;9.16;58.36;96443.59;5084953;28;20189;-63
2022/10/17 06:50:04;;;;;;;14.60;10.25;;;;;;;9.20;58.54;96427.53;5081576;28;20191;-63
2022/10/17 06:52:29;;;;;;;14.10;9.75;;;;;;;9.27;58.51;96430.53;5084472;28;20180;-64
2022/10/17 06:54:54;;;;;;;11.18;8.18;;;;;;;9.40;58.11;96433.13;5084943;28;20200;-63
2022/10/17 06:57:20;;;;;;;9.80;8.80;;;;;;;9.63;57.23;96428.88;5084906;28;20263;-63
2022/10/17 06:59:45;;;;;;;12.65;9.18;;;;;;;9.40;57.72;96433.13;5088583;28;20275;-64
2022/10/17 07:02:11;;;;;;;11.15;8.70;;;;;;;9.58;57.36;96433.59;5088051;28;20200;-64
2022/10/17 07:04:37;;;;;;;14.88;9.68;;;;;;;9.47;57.65;96429.97;5088706;28;20252;-63
2022/10/17 07:07:03;;;;;;;12.55;8.75;;;;;;;9.55;57.50;96426.78;5087131;28;20260;-63
2022/10/17 07:09:29;;;;;;;10.05;8.82;;;;;;;9.79;56.83;96428.59;5086680;28;20184;-64
2022/10/17 07:11:55;;;;;;;12.18;8.77;;;;;;;9.89;56.72;96427.81;5082978;28;20184;-63
2022/10/17 07:14:21;;;;;;;11.30;9.07;;;;;;;9.92;56.35;96419.69;5083834;28;20184;-64
2022/10/17 07:16:46;;;;;;;11.13;9.90;;;;;;;9.97;56.02;96429.88;5082387;28;20193;-64
2022/10/17 07:19:11;;;;;;;11.45;9.57;;;;;;;10.06;56.19;96425.72;5087194;28;20271;-63
2022/10/17 07:21:37;;;;;;;12.15;10.95;;;;;;;9.89;57.05;96429.56;5085157;28;20198;-63
2022/10/17 07:24:03;;;;;;;14.83;11.43;;;;;;;9.78;56.92;96426.91;5083193;28;20227;-63
2022/10/17 07:26:28;;;;;;;15.15;12.98;;;;;;;9.85;56.82;96422.88;5065171;28;20227;-63
2022/10/17 07:28:54;;;;;;;15.60;13.90;;;;;;;10.12;56.67;96435.75;5082492;28;20302;-62
2022/10/17 07:31:22;;;;;;;17.27;14.60;;;;;;;9.89;56.50;96430.44;5082421;28;20216;-62
2022/10/17 07:33:48;;;;;;;17.50;14.70;;;;;;;9.94;56.41;96430.06;5084123;28;20181;-63
2022/10/17 07:36:14;;;;;;;20.58;15.65;;;;;;;10.22;55.52;96425.41;5087944;28;20207;-63
2022/10/17 07:38:41;;;;;;;18.80;15.43;;;;;;;10.32;55.28;96436.94;5089473;28;20216;-64
2022/10/17 07:41:07;;;;;;;18.08;15.20;;;;;;;10.41;55.25;96435.41;5086089;28;20197;-64
2022/10/17 07:43:35;;;;;;;18.95;15.27;;;;;;;10.67;55.08;96441.31;5081737;28;20181;-62
2022/10/17 07:46:02;;;;;;;17.42;15.57;;;;;;;10.73;54.74;96435.59;5082449;28;20205;-62
2022/10/17 07:48:28;;;;;;;20.17;15.35;;;;;;;10.75;54.61;96433.69;5085665;28;20188;-63
2022/10/17 07:50:53;;;;;;;18.77;15.43;;;;;;;10.93;54.12;96442.78;5081208;28;20231;-63
2022/10/17 07:53:19;;;;;;;18.45;15.07;;;;;;;10.84;53.73;96434.75;5067965;28;20215;-62
2022/10/17 07:55:45;;;;;;;17.58;15.32;;;;;;;10.87;53.40;96435.34;5081148;28;20296;-63
2022/10/17 07:58:11;;;;;;;17.08;15.27;;;;;;;10.97;53.30;96436.31;5086208;28;20172;-64
2022/10/17 08:00:37;;;;;;;24.95;16.30;;;;;;;11.04;53.54;96442.78;5077576;28;20205;-63
2022/10/17 08:03:03;;;;;;;19.08;16.83;;;;;;;11.16;53.35;96442.78;5084673;28;20180;-63
2022/10/17 08:05:30;;;;;;;20.98;15.57;;;;;;;11.18;53.37;96431.16;5079522;28;20213;-64
2022/10/17 08:07:55;;;;;;;19.92;15.82;;;;;;;11.35;53.62;96427.19;5084904;28;20185;-63
2022/10/17 08:10:26;;;;;;;19.48;15.73;;;;;;;11.40;53.21;96434.72;5086458;28;20228;-63
2022/10/17 08:12:57;;;;;;;20.90;15.52;;;;;;;11.37;52.95;96427.09;5082775;28;20297;-63
2022/10/17 08:15:24;;;;;;;19.88;14.55;;;;;;;11.37;53.09;96417.38;5088405;28;20238;-63
2022/10/17 08:17:50;;;;;;;19.00;15.98;;;;;;;11.55;52.56;96422.97;5084106;28;20195;-63
2022/10/17 08:20:16;;;;;;;21.55;16.35;;;;;;;11.63;52.16;96419.72;5085076;28;20271;-63
2022/10/17 08:22:42;;;;;;;19.80;15.77;;;;;;;11.62;51.70;96412.78;5084816;28;20229;-63
2022/10/17 08:25:08;;;;;;;19.02;15.63;;;;;;;11.69;51.56;96408.69;5088822;28;20188;-64
2022/10/17 08:27:34;;;;;;;19.45;16.30;;;;;;;11.69;51.35;96409.53;5071186;28;20192;-63
2022/10/17 08:30:00;;;;;;;16.73;14.73;;;;;;;11.80;51.20;96419.19;5085719;28;20191;-63
2022/10/17 08:32:27;;;;;;;16.33;14.63;;;;;;;11.75;50.27;96412.63;5081399;28;20180;-64
2022/10/17 08:34:54;;;;;;;15.10;13.50;;;;;;;11.97;49.85;96417.81;5082281;28;20179;-63
2022/10/17 08:37:20;;;;;;;16.67;13.15;;;;;;;12.08;49.25;96412.53;5088306;28;20180;-63
2022/10/17 08:39:45;;;;;;;20.65;14.55;;;;;;;12.23;48.46;96401.66;5083253;28;20191;-63
2022/10/17 08:42:26;;;;;;;16.67;14.80;;;;;;;12.32;48.59;96414.94;5081783;28;20210;-63
2022/10/17 08:45:08;;;;;;;15.07;13.23;;;;;;;12.40;48.65;96405.53;5082999;28;20326;-63
2022/10/17 08:47:51;;;;;;;16.48;13.80;;;;;;;12.65;47.88;96407.78;5079220;28;20180;-63
2022/10/17 08:50:30;;;;;;;18.15;14.07;;;;;;;12.89;47.18;96417.22;5084257;28;20214;-63
2022/10/17 08:53:29;;;;;;;15.93;12.13;;;;;;;13.02;46.16;96420.47;5083917;28;20299;-64
2022/10/17 08:55:55;;;;;;;14.70;12.75;;;;;;;13.16;46.19;96419.25;5080644;28;20208;-63
2022/10/17 08:58:32;;;;;;;18.52;12.75;;;;;;;13.28;46.24;96414.75;5083962;28;20180;-63
2022/10/17 09:01:25;;;;;;;15.32;11.65;;;;;;;13.40;44.83;96418.97;5086197;28;20187;-63
2022/10/17 09:04:15;;;;;;;14.18;11.98;;;;;;;13.47;44.71;96420.06;5083269;28;20180;-64
2022/10/17 09:07:22;;;;;;;13.65;11.75;;;;;;;13.81;44.53;96417.09;5088702;28;20288;-64
2022/10/17 09:10:08;;;;;;;14.65;11.43;;;;;;;13.89;43.56;96410.13;5079105;28;20259;-63
2022/10/17 09:12:37;;;;;;;13.68;11.30;;;;;;;13.99;43.27;96419.91;5080709;28;20192;-64
2022/10/17 09:15:28;;;;;;;14.57;10.57;;;;;;;13.95;41.89;96408.75;5082073;28;20189;-63
2022/10/17 09:18:00;;;;;;;11.27;8.15;;;;;;;14.07;40.53;96412.09;5100560;28;20184;-62
2022/10/17 09:20:38;;;;;;;13.20;9.23;;;;;;;14.08;40.38;96424.34;5083235;28;20223;-63
2022/10/17 09:23:18;;;;;;;12.38;9.45;;;;;;;14.03;40.03;96418.63;5085683;28;20176;-62
2022/10/17 09:25:47;;;;;;;9.70;8.70;;;;;;;14.06;40.22;96411.28;5081279;28;20206;-62
2022/10/17 09:28:19;;;;;;;10.48;8.50;;;;;;;14.34;40.07;96421.97;5075386;28;20248;-62
2022/10/17 09:30:59;;;;;;;12.93;8.40;;;;;;;14.50;40.01;96416.09;5081191;28;20191;-62
2022/10/17 09:33:29;;;;;;;14.93;8.48;;;;;;;14.55;39.72;96416.56;5088124;28;20246;-62
2022/10/17 09:35:57;;;;;;;11.73;7.90;;;;;;;14.77;40.69;96412.72;5082571;28;20187;-63
2022/10/17 09:38:37;;;;;;;9.32;8.27;;;;;;;15.09;40.23;96412.34;5085110;28;20663;-64
2022/10/17 09:41:02;;;;;;;15.02;8.38;;;;;;;15.03;39.02;96414.75;5088381;28;20195;-63
2022/10/17 09:43:28;;;;;;;13.88;9.35;;;;;;;15.07;38.88;96416.94;5089007;28;20278;-63
2022/10/17 09:46:14;;;;;;;11.13;8.75;;;;;;;15.17;39.03;96406.31;5089468;28;20208;-63
2022/10/17 09:48:56;;;;;;;9.60;7.35;;;;;;;15.41;38.74;96411.91;5102300;28;20238;-62
2022/10/17 09:51:23;;;;;;;9.07;7.00;;;;;;;15.49;38.15;96400.59;5088546;28;20220;-63
2022/10/17 09:54:23;;;;;;;8.20;5.63;;;;;;;15.66;36.84;96401.59;5072815;28;20205;-62
2022/10/17 09:57:02;;;;;;;5.68;4.88;;;;;;;15.86;35.08;96402.34;5081686;28;20185;-61
2022/10/17 09:59:37;;;;;;;5.75;4.43;;;;;;;16.03;34.85;96400.66;5082713;28;20275;-61
2022/10/17 10:02:11;;;;;;;7.18;4.38;;;;;;;16.09;34.97;96389.44;5085217;28;20184;-61
2022/10/17 10:04:50;;;;;;;5.35;4.03;;;;;;;16.17;34.18;96394.84;5085104;28;20176;-61
2022/10/17 10:07:16;;;;;;;4.38;3.83;;;;;;;16.29;33.91;96383.00;5086655;28;20216;-61
2022/10/17 10:09:46;;;;;;;4.28;3.70;;;;;;;16.48;33.79;96392.59;5083364;28;20261;-62
2022/10/17 10:12:19;;;;;;;5.28;3.70;;;;;;;16.63;33.15;96392.88;5083530;28;20192;-62
2022/10/17 10:14:45;;;;;;;5.90;3.13;;;;;;;16.67;33.43;96383.59;5086123;28;20185;-62
2022/10/17 10:17:25;;;;;;;6.18;3.20;;;;;;;16.78;32.12;96382.53;5088456;28;20194;-62
2022/10/17 10:19:51;;;;;;;6.47;3.13;;;;;;;16.85;31.53;96380.09;5082688;28;20181;-62
2022/10/17 10:22:18;;;;;;;7.50;3.65;;;;;;;16.96;31.96;96385.13;5088755;28;20181;-62
2022/10/17 10:24:44;;;;;;;5.25;4.03;;;;;;;17.15;32.07;96379.56;5087374;28;20218;-61
2022/10/17 10:27:16;;;;;;;3.17;2.78;;;;;;;17.26;30.44;96374.97;5089516;28;20236;-61
2022/10/17 10:29:52;;;;;;;5.05;3.10;;;;;;;17.41;30.79;96370.72;5087226;28;20196;-61
2022/10/17 10:32:24;;;;;;;5.47;3.10;;;;;;;17.32;29.46;96363.69;5084167;28;20191;-61
2022/10/17 10:34:55;;;;;;;3.92;3.22;;;;;;;17.29;30.72;96361.34;5084133;28;20180;-62
2022/10/17 10:37:24;;;;;;;5.78;3.20;;;;;;;17.56;30.50;96361.13;5086655;28;20187;-61
2022/10/17 10:39:59;;;;;;;7.38;3.70;;;;;;;17.72;30.85;96359.47;5087176;28;20276;-61
2022/10/17 10:42:30;;;;;;;4.75;3.63;;;;;;;17.84;30.46;96359.03;5076944;28;20215;-62
2022/10/17 10:45:17;;;;;;;4.18;3.20;;;;;;;17.84;29.23;96361.69;5079921;28;20185;-63
2022/10/17 10:48:01;;;;;;;6.07;2.95;;;;;;;17.87;30.15;96351.72;5083588;28;20189;-61
2022/10/17 10:50:42;;;;;;;4.47;3.00;;;;;;;17.91;29.22;96353.91;5084907;28;20184;-61
2022/10/17 10:53:49;;;;;;;7.32;3.17;;;;;;;18.28;29.61;96349.91;5088163;28;20205;-64
2022/10/17 10:56:37;;;;;;;4.75;2.92;;;;;;;18.54;28.22;96343.56;5086425;28;20200;-64
2022/10/17 10:59:28;;;;;;;3.55;2.95;;;;;;;18.75;28.02;96346.56;5071293;28;20181;-65
2022/10/17 11:01:58;;;;;;;5.85;2.83;;;;;;;18.79;28.29;96342.56;5090393;28;20176;-65
2022/10/17 11:04:39;;;;;;;2.97;2.58;;;;;;;18.85;27.16;96341.88;5083834;28;20192;-64
2022/10/17 11:07:30;;;;;;;2.65;2.45;;;;;;;18.99;26.31;96343.00;5084703;28;20196;-66
2022/10/17 11:10:13;;;;;;;3.92;3.00;;;;;;;18.93;26.58;96335.69;5085050;28;20238;-66
2022/10/17 11:12:43;;;;;;;6.03;2.80;;;;;;;18.56;26.72;96341.56;5084826;28;20176;-62
2022/10/17 11:15:25;;;;;;;4.38;2.30;;;;;;;18.56;26.30;96336.25;5083502;28;20180;-65
2022/10/17 11:18:04;;;;;;;2.70;2.50;;;;;;;18.52;26.45;96336.59;5083288;28;20180;-65
2022/10/17 11:20:33;;;;;;;4.70;2.90;;;;;;;18.67;25.65;96334.06;5080471;28;20223;-63
2022/10/17 11:23:20;;;;;;;4.97;2.80;;;;;;;18.83;26.17;96321.72;5083418;28;20539;-63
2022/10/17 11:25:50;;;;;;;4.55;2.85;;;;;;;19.13;25.57;96323.59;5084968;28;20216;-64
2022/10/17 11:28:18;;;;;;;6.78;3.03;;;;;;;19.28;26.34;96326.38;5085891;28;20184;-64
2022/10/17 11:30:43;;;;;;;2.60;2.33;;;;;;;19.58;25.92;96322.06;5081029;28;20211;-64
2022/10/17 11:33:14;;;;;;;5.32;2.65;;;;;;;19.86;25.19;96328.75;5087470;28;20184;-64
2022/10/17 11:35:44;;;;;;;5.13;2.78;;;;;;;19.97;24.83;96315.84;5085015;28;20172;-65
2022/10/17 11:38:16;;;;;;;4.72;2.40;;;;;;;20.38;24.58;96318.16;5084732;28;20184;-64
2022/10/17 11:40:45;;;;;;;4.72;2.97;;;;;;;20.15;25.32;96318.16;5084724;28;20250;-65
2022/10/17 11:43:19;;;;;;;6.25;4.90;;;;;;;20.55;24.41;96326.88;5086900;28;20522;-64
2022/10/17 11:45:54;;;;;;;4.47;2.72;;;;;;;20.40;23.63;96316.13;5072346;28;20277;-61
2022/10/17 11:48:26;;;;;;;3.55;2.67;;;;;;;20.19;23.27;96311.47;5088043;28;20241;-61